CMW weather

Ignacio Agramonte International Airport
Camaguey, Camag├╝ey, Cuba

Public forecast

Using degrees Celsius for public forecast. Weather courtesy of forecast.io.

Current aviation weather report (METAR) for Ignacio Agramonte International Airport

Retrieved 2020/06/05 18:05 UTC (55 minutes ago):

MUCM 051805Z AUTO 09009KT 040V130 33/25 Q1015

Aviation forecast (TAF) for Ignacio Agramonte International Airport

Retrieved 2020/06/05 18:05 UTC (55 minutes ago):

TAF MUCM 051700Z 0518/0618 08008KT 9000 SCT020 TEMPO 0518/0524 VRB10KT 5000 SHRA SCT018CB BKN020 BECMG 0601/0603 VRB03KT BECMG 0615/0617 09008KT